Time;durP1;ratioP1;P1;durP2;ratioP2;P2;SDS_P1;SDS_P2;PMS_P1;PMS_P2;Temp;Humidity;BMP_temperature;BMP_pressure;BME280_temperature;BME280_humidity;BME280_pressure;Samples;Min_cycle;Max_cycle;Signal;HPM_P1;HPM_P2
2022/06/16 00:01:08;;;;;;;5.33;2.57;;;;;;;;;;4973111;28;20725;-56
2022/06/16 00:03:34;;;;;;;2.57;1.90;;;;;;;;;;4975385;28;20211;-56
2022/06/16 00:06:00;;;;;;;3.47;2.17;;;;;;;;;;4975929;28;20602;-58
2022/06/16 00:08:26;;;;;;;2.97;2.40;;;;;;;;;;4975417;28;20195;-56
2022/06/16 00:13:39;;;;;;;3.97;2.50;;;;;;;;;;4975100;28;20205;-57
2022/06/16 00:16:06;;;;;;;3.93;2.30;;;;;;;;;;4974885;28;20203;-57
2022/06/16 00:18:32;;;;;;;5.17;2.40;;;;;;;;;;4974959;28;20610;-57
2022/06/16 00:20:58;;;;;;;4.87;2.20;;;;;;;;;;4974922;28;20222;-54
2022/06/16 00:23:25;;;;;;;3.50;2.30;;;;;;;;;;4974780;28;20242;-55
2022/06/16 00:25:51;;;;;;;5.00;2.80;;;;;;;;;;4974724;28;20235;-54
2022/06/16 00:28:17;;;;;;;4.33;2.13;;;;;;;;;;4973963;28;20263;-54
2022/06/16 00:30:44;;;;;;;3.47;2.17;;;;;;;;;;4974535;28;20293;-54
2022/06/16 00:33:10;;;;;;;2.40;1.90;;;;;;;;;;4974294;28;20646;-54
2022/06/16 00:35:36;;;;;;;3.23;1.90;;;;;;;;;;4974274;28;20199;-54
2022/06/16 00:38:02;;;;;;;3.30;2.20;;;;;;;;;;4974474;28;20286;-54
2022/06/16 00:40:29;;;;;;;5.63;2.47;;;;;;;;;;4974106;28;20306;-54
2022/06/16 00:42:55;;;;;;;3.73;2.33;;;;;;;;;;4974297;28;20208;-54
2022/06/16 00:45:39;;;;;;;7.63;2.30;;;;;;;;;;4974020;28;20245;-54
2022/06/16 00:48:07;;;;;;;3.73;2.17;;;;;;;;;;4974069;28;20195;-54
2022/06/16 00:50:33;;;;;;;3.30;2.03;;;;;;;;;;4974223;28;20207;-54
2022/06/16 00:52:59;;;;;;;7.47;2.27;;;;;;;;;;4974056;28;20214;-54
2022/06/16 00:55:26;;;;;;;2.37;2.00;;;;;;;;;;4973951;28;20202;-54
2022/06/16 00:57:53;;;;;;;3.47;2.33;;;;;;;;;;4973810;28;20230;-54
2022/06/16 01:00:28;;;;;;;4.70;2.10;;;;;;;;;;4973677;28;20663;-54
2022/06/16 01:02:54;;;;;;;2.97;2.20;;;;;;;;;;4974025;28;20206;-54
2022/06/16 01:05:23;;;;;;;6.13;2.40;;;;;;;;;;4973607;28;20225;-54
2022/06/16 01:07:49;;;;;;;3.37;1.90;;;;;;;;;;4973919;28;20214;-54
2022/06/16 01:10:16;;;;;;;6.40;2.40;;;;;;;;;;4973555;28;20199;-54
2022/06/16 01:15:55;;;;;;;5.30;2.40;;;;;;;;;;4951928;28;20204;-54
2022/06/16 01:18:26;;;;;;;2.90;2.17;;;;;;;;;;4970094;28;20298;-54
2022/06/16 01:21:00;;;;;;;3.53;2.00;;;;;;;;;;4973698;28;20203;-54
2022/06/16 01:23:43;;;;;;;4.20;2.07;;;;;;;;;;4973553;28;20261;-54
2022/06/16 01:26:21;;;;;;;4.03;2.40;;;;;;;;;;4973336;28;20231;-54
2022/06/16 01:28:58;;;;;;;3.43;2.20;;;;;;;;;;4973494;28;20207;-54
2022/06/16 01:31:26;;;;;;;4.10;2.60;;;;;;;;;;4973267;28;20225;-54
2022/06/16 01:33:55;;;;;;;3.47;2.70;;;;;;;;;;4973603;28;20209;-54
2022/06/16 01:36:24;;;;;;;3.17;2.30;;;;;;;;;;4973175;28;20195;-54
2022/06/16 01:38:53;;;;;;;3.87;2.43;;;;;;;;;;4973302;28;20555;-54
2022/06/16 01:41:23;;;;;;;6.07;2.87;;;;;;;;;;4973111;28;20206;-54
2022/06/16 01:43:51;;;;;;;3.93;2.60;;;;;;;;;;4973450;28;20205;-54
2022/06/16 01:46:21;;;;;;;6.70;2.70;;;;;;;;;;4973066;28;20226;-54
2022/06/16 01:48:50;;;;;;;3.57;2.20;;;;;;;;;;4973205;28;20211;-54
2022/06/16 01:51:19;;;;;;;4.50;2.67;;;;;;;;;;4972811;28;20329;-54
2022/06/16 01:53:47;;;;;;;3.67;2.43;;;;;;;;;;4973071;28;20213;-54
2022/06/16 01:56:16;;;;;;;3.50;2.40;;;;;;;;;;4973051;28;20199;-54
2022/06/16 01:58:45;;;;;;;3.30;2.40;;;;;;;;;;4972846;28;20206;-54
2022/06/16 02:01:14;;;;;;;4.37;2.43;;;;;;;;;;4972805;28;20805;-54
2022/06/16 02:03:43;;;;;;;4.10;2.20;;;;;;;;;;4972823;28;20732;-54
2022/06/16 02:06:10;;;;;;;3.77;2.30;;;;;;;;;;4972885;28;20234;-54
2022/06/16 02:08:39;;;;;;;3.43;2.50;;;;;;;;;;4972086;28;20203;-53
2022/06/16 02:11:08;;;;;;;4.47;2.50;;;;;;;;;;4972639;28;20243;-54
2022/06/16 02:13:37;;;;;;;3.03;2.40;;;;;;;;;;4972937;28;20230;-54
2022/06/16 02:16:05;;;;;;;4.13;2.70;;;;;;;;;;4972685;28;20279;-53
2022/06/16 02:18:33;;;;;;;4.23;2.30;;;;;;;;;;4972428;28;20203;-54
2022/06/16 02:21:02;;;;;;;3.50;2.20;;;;;;;;;;4972542;28;20206;-54
2022/06/16 02:23:28;;;;;;;4.80;2.73;;;;;;;;;;4972716;28;20261;-53
2022/06/16 02:25:56;;;;;;;4.00;2.40;;;;;;;;;;4972318;28;20293;-54
2022/06/16 02:28:22;;;;;;;3.63;2.23;;;;;;;;;;4972476;28;20848;-54
2022/06/16 02:30:54;;;;;;;4.87;2.70;;;;;;;;;;4972427;28;20582;-54
2022/06/16 02:33:23;;;;;;;8.17;2.93;;;;;;;;;;4972556;28;20195;-54
2022/06/16 02:35:51;;;;;;;4.60;2.70;;;;;;;;;;4972205;28;20197;-54
2022/06/16 02:38:27;;;;;;;6.57;2.80;;;;;;;;;;4972317;28;20282;-54
2022/06/16 02:40:59;;;;;;;4.67;2.67;;;;;;;;;;4972469;28;20226;-54
2022/06/16 02:43:37;;;;;;;4.73;2.80;;;;;;;;;;4972388;28;20207;-54
2022/06/16 02:46:05;;;;;;;5.50;2.77;;;;;;;;;;4972540;28;20281;-54
2022/06/16 02:48:36;;;;;;;6.70;2.80;;;;;;;;;;4972224;28;20745;-54
2022/06/16 02:51:05;;;;;;;5.33;3.17;;;;;;;;;;4972309;28;20199;-54
2022/06/16 02:53:42;;;;;;;7.57;2.97;;;;;;;;;;4972369;28;20195;-54
2022/06/16 02:56:12;;;;;;;6.10;2.80;;;;;;;;;;4972199;28;20209;-53
2022/06/16 02:58:41;;;;;;;4.57;2.43;;;;;;;;;;4972266;28;20198;-53
2022/06/16 03:01:08;;;;;;;4.50;2.73;;;;;;;;;;4972408;28;20203;-54
2022/06/16 03:03:34;;;;;;;3.00;2.23;;;;;;;;;;4972091;28;20203;-53
2022/06/16 03:06:00;;;;;;;3.87;2.60;;;;;;;;;;4972210;28;20226;-53
2022/06/16 03:08:27;;;;;;;5.73;2.87;;;;;;;;;;4972165;28;20225;-53
2022/06/16 03:10:54;;;;;;;4.97;2.67;;;;;;;;;;4972124;28;20191;-54
2022/06/16 03:13:22;;;;;;;4.80;2.90;;;;;;;;;;4972232;28;20218;-54
2022/06/16 03:15:48;;;;;;;4.00;2.80;;;;;;;;;;4972014;28;20199;-53
2022/06/16 03:18:15;;;;;;;4.67;2.70;;;;;;;;;;4972034;28;20206;-53
2022/06/16 03:20:40;;;;;;;4.90;3.03;;;;;;;;;;4973639;28;20620;-54
2022/06/16 03:23:06;;;;;;;4.20;3.00;;;;;;;;;;4975713;28;20198;-53
2022/06/16 03:25:33;;;;;;;7.27;3.53;;;;;;;;;;4975523;28;20234;-53
2022/06/16 03:28:00;;;;;;;3.00;2.50;;;;;;;;;;4975597;28;20203;-54
2022/06/16 03:30:26;;;;;;;5.43;3.00;;;;;;;;;;4974661;28;20263;-54
2022/06/16 03:32:52;;;;;;;4.07;2.47;;;;;;;;;;4975210;28;20617;-53
2022/06/16 03:35:18;;;;;;;4.53;2.93;;;;;;;;;;4975494;28;20194;-54
2022/06/16 03:37:44;;;;;;;4.23;2.83;;;;;;;;;;4975673;28;20579;-53
2022/06/16 03:40:13;;;;;;;6.20;2.83;;;;;;;;;;4975279;28;20242;-54
2022/06/16 03:42:40;;;;;;;3.77;2.80;;;;;;;;;;4975318;28;20231;-53
2022/06/16 03:45:08;;;;;;;3.77;2.60;;;;;;;;;;4975364;28;20257;-54
2022/06/16 03:47:34;;;;;;;4.27;2.57;;;;;;;;;;4975267;28;20207;-54
2022/06/16 03:50:00;;;;;;;3.73;2.60;;;;;;;;;;4974830;28;20436;-54
2022/06/16 03:52:26;;;;;;;7.80;2.83;;;;;;;;;;4975255;28;20227;-54
2022/06/16 03:54:52;;;;;;;4.37;2.80;;;;;;;;;;4975287;28;20199;-54
2022/06/16 03:57:18;;;;;;;4.63;2.80;;;;;;;;;;4975165;28;20279;-54
2022/06/16 03:59:44;;;;;;;3.97;2.43;;;;;;;;;;4975179;28;20191;-54
2022/06/16 04:02:11;;;;;;;4.37;2.63;;;;;;;;;;4975019;28;20598;-54
2022/06/16 04:04:37;;;;;;;5.07;2.70;;;;;;;;;;4974845;28;20214;-54
2022/06/16 04:07:03;;;;;;;4.33;2.50;;;;;;;;;;4974637;28;20242;-54
2022/06/16 04:09:29;;;;;;;3.70;2.60;;;;;;;;;;4974862;28;20206;-54
2022/06/16 04:11:55;;;;;;;4.53;2.30;;;;;;;;;;4975181;28;20565;-53
2022/06/16 04:14:21;;;;;;;4.13;2.50;;;;;;;;;;4975121;28;20195;-54
2022/06/16 04:16:49;;;;;;;4.13;2.37;;;;;;;;;;4975102;28;20593;-54
2022/06/16 04:19:17;;;;;;;4.20;2.40;;;;;;;;;;4974614;28;20191;-53
2022/06/16 04:21:44;;;;;;;3.40;2.43;;;;;;;;;;4974775;28;20470;-53
2022/06/16 04:24:10;;;;;;;4.70;2.37;;;;;;;;;;4974865;28;20249;-54
2022/06/16 04:26:37;;;;;;;5.57;2.53;;;;;;;;;;4974432;28;20238;-53
2022/06/16 04:29:03;;;;;;;6.33;2.70;;;;;;;;;;4974280;28;20285;-53
2022/06/16 04:31:30;;;;;;;6.23;2.27;;;;;;;;;;4973883;28;20631;-54
2022/06/16 04:33:56;;;;;;;3.47;2.57;;;;;;;;;;4974337;28;20211;-54
2022/06/16 04:36:23;;;;;;;4.10;2.30;;;;;;;;;;4974360;28;20191;-54
2022/06/16 04:38:50;;;;;;;4.33;2.50;;;;;;;;;;4974673;28;20206;-53
2022/06/16 04:41:30;;;;;;;3.37;2.43;;;;;;;;;;4974404;28;20463;-53
2022/06/16 04:43:56;;;;;;;4.07;2.50;;;;;;;;;;4974228;28;20202;-53
2022/06/16 04:46:23;;;;;;;3.97;2.30;;;;;;;;;;4973989;28;20230;-53
2022/06/16 04:48:49;;;;;;;3.93;2.40;;;;;;;;;;4974389;28;20218;-53
2022/06/16 04:51:16;;;;;;;3.70;2.20;;;;;;;;;;4974124;28;20203;-53
2022/06/16 04:53:43;;;;;;;3.73;2.17;;;;;;;;;;4974287;28;20565;-54
2022/06/16 04:56:09;;;;;;;6.53;2.70;;;;;;;;;;4974186;28;20210;-54
2022/06/16 04:58:35;;;;;;;3.03;2.40;;;;;;;;;;4973750;28;20203;-53
2022/06/16 05:01:01;;;;;;;3.93;2.43;;;;;;;;;;4974247;28;20724;-54
2022/06/16 05:03:28;;;;;;;3.07;2.50;;;;;;;;;;4973817;28;20203;-53
2022/06/16 05:05:55;;;;;;;4.33;2.37;;;;;;;;;;4973522;28;20223;-54
2022/06/16 05:08:21;;;;;;;4.60;2.77;;;;;;;;;;4974206;28;20261;-54
2022/06/16 05:10:50;;;;;;;4.57;2.83;;;;;;;;;;4973426;28;20570;-54
2022/06/16 05:13:16;;;;;;;3.13;2.40;;;;;;;;;;4973558;28;20645;-54
2022/06/16 05:15:42;;;;;;;6.97;2.87;;;;;;;;;;4973788;28;20203;-54
2022/06/16 05:18:12;;;;;;;5.27;2.70;;;;;;;;;;4973561;28;20203;-54
2022/06/16 05:20:38;;;;;;;3.93;3.10;;;;;;;;;;4973103;28;20191;-54
2022/06/16 05:23:04;;;;;;;3.60;2.40;;;;;;;;;;4973453;28;20728;-54
2022/06/16 05:25:30;;;;;;;3.77;2.40;;;;;;;;;;4973068;28;20222;-54
2022/06/16 05:27:57;;;;;;;5.83;2.50;;;;;;;;;;4973410;28;20206;-53
2022/06/16 05:30:23;;;;;;;4.37;2.57;;;;;;;;;;4973142;28;20242;-53
2022/06/16 05:32:49;;;;;;;5.67;2.60;;;;;;;;;;4973072;28;20198;-53
2022/06/16 05:35:15;;;;;;;5.17;2.83;;;;;;;;;;4973171;28;20278;-54
2022/06/16 05:37:41;;;;;;;3.90;2.37;;;;;;;;;;4973238;28;20199;-54
2022/06/16 05:40:07;;;;;;;2.67;2.23;;;;;;;;;;4973514;28;20262;-54
2022/06/16 05:42:33;;;;;;;3.93;2.10;;;;;;;;;;4972579;28;20261;-53
2022/06/16 05:45:01;;;;;;;3.23;2.40;;;;;;;;;;4972743;28;20195;-53
2022/06/16 05:47:27;;;;;;;3.23;2.70;;;;;;;;;;4973046;28;20233;-54
2022/06/16 05:49:53;;;;;;;3.00;2.33;;;;;;;;;;4972579;28;20274;-54
2022/06/16 05:52:19;;;;;;;5.10;3.03;;;;;;;;;;4973461;28;20724;-53
2022/06/16 05:54:46;;;;;;;2.40;2.20;;;;;;;;;;4972847;28;20204;-53
2022/06/16 05:57:12;;;;;;;5.03;2.30;;;;;;;;;;4972928;28;20214;-54
2022/06/16 05:59:38;;;;;;;3.20;2.20;;;;;;;;;;4972880;28;20207;-54
2022/06/16 06:02:07;;;;;;;4.07;2.67;;;;;;;;;;4972762;28;20202;-54
2022/06/16 06:04:33;;;;;;;4.63;2.40;;;;;;;;;;4972655;28;20230;-54
2022/06/16 06:06:59;;;;;;;3.37;1.80;;;;;;;;;;4972881;28;20253;-53
2022/06/16 06:17:42;;;;;;;2.47;1.80;;;;;;;;;;4972457;28;20250;-54
2022/06/16 06:20:09;;;;;;;3.23;1.97;;;;;;;;;;4971968;28;20207;-54
2022/06/16 06:22:35;;;;;;;4.33;2.00;;;;;;;;;;4972383;28;20677;-54
2022/06/16 06:25:01;;;;;;;3.93;1.93;;;;;;;;;;4972163;28;20200;-54
2022/06/16 06:27:29;;;;;;;4.27;1.80;;;;;;;;;;4972137;28;20223;-54
2022/06/16 06:29:55;;;;;;;3.43;1.93;;;;;;;;;;4972393;28;20245;-54
2022/06/16 06:32:22;;;;;;;3.10;1.83;;;;;;;;;;4972227;28;20205;-54
2022/06/16 06:34:49;;;;;;;2.93;2.00;;;;;;;;;;4972372;28;20215;-54
2022/06/16 06:37:17;;;;;;;4.40;1.83;;;;;;;;;;4972071;28;20671;-54
2022/06/16 06:39:43;;;;;;;2.30;1.83;;;;;;;;;;4972051;28;20199;-54
2022/06/16 06:42:09;;;;;;;4.40;2.03;;;;;;;;;;4972468;28;20205;-53
2022/06/16 06:44:35;;;;;;;5.00;1.97;;;;;;;;;;4972088;28;20212;-54
2022/06/16 06:47:01;;;;;;;6.13;2.10;;;;;;;;;;4972184;28;20291;-54
2022/06/16 06:49:27;;;;;;;4.60;2.03;;;;;;;;;;4972065;28;20196;-54
2022/06/16 06:51:55;;;;;;;3.17;2.07;;;;;;;;;;4972139;28;20199;-54
2022/06/16 06:54:21;;;;;;;2.27;1.67;;;;;;;;;;4973095;28;20300;-54
2022/06/16 06:56:48;;;;;;;4.10;2.10;;;;;;;;;;4975855;28;20293;-55
2022/06/16 06:59:16;;;;;;;3.47;1.70;;;;;;;;;;4976010;28;20261;-54
2022/06/16 07:01:42;;;;;;;3.07;1.73;;;;;;;;;;4976413;28;20206;-54
2022/06/16 07:04:08;;;;;;;4.23;1.90;;;;;;;;;;4976208;28;20244;-54
2022/06/16 07:06:34;;;;;;;3.93;1.63;;;;;;;;;;4976421;28;20711;-55
2022/06/16 07:09:02;;;;;;;4.67;2.03;;;;;;;;;;4976110;28;20289;-54
2022/06/16 07:11:28;;;;;;;2.37;1.33;;;;;;;;;;4975845;28;20673;-54
2022/06/16 07:13:54;;;;;;;2.97;1.60;;;;;;;;;;4975975;28;20206;-55
2022/06/16 07:16:21;;;;;;;4.87;1.93;;;;;;;;;;4976364;28;20193;-54
2022/06/16 07:18:48;;;;;;;5.03;1.70;;;;;;;;;;4975870;28;20199;-54
2022/06/16 07:21:14;;;;;;;6.37;1.57;;;;;;;;;;4975986;28;20203;-54
2022/06/16 07:23:41;;;;;;;4.80;1.80;;;;;;;;;;4975512;28;20206;-54
2022/06/16 07:26:08;;;;;;;2.80;1.30;;;;;;;;;;4975559;28;20230;-54
2022/06/16 07:28:34;;;;;;;2.10;1.33;;;;;;;;;;4976125;28;20206;-54
2022/06/16 07:31:00;;;;;;;2.33;1.27;;;;;;;;;;4975761;28;20318;-55
2022/06/16 07:33:26;;;;;;;3.70;1.80;;;;;;;;;;4975808;28;20746;-55
2022/06/16 07:35:53;;;;;;;2.60;1.40;;;;;;;;;;4975088;28;20235;-55
2022/06/16 07:38:20;;;;;;;3.50;1.40;;;;;;;;;;4975469;28;20246;-54
2022/06/16 07:40:46;;;;;;;2.97;1.40;;;;;;;;;;4975932;28;20206;-54
2022/06/16 07:43:14;;;;;;;2.47;1.47;;;;;;;;;;4975560;28;20242;-55
2022/06/16 07:45:40;;;;;;;4.20;1.63;;;;;;;;;;4975197;28;20207;-54
2022/06/16 07:48:08;;;;;;;2.73;1.40;;;;;;;;;;4975361;28;20242;-54
2022/06/16 07:50:36;;;;;;;3.07;1.40;;;;;;;;;;4975135;28;20733;-54
2022/06/16 07:53:02;;;;;;;4.60;1.67;;;;;;;;;;4975479;28;20209;-54
2022/06/16 07:55:28;;;;;;;6.33;1.80;;;;;;;;;;4976229;28;20208;-54
2022/06/16 07:57:54;;;;;;;1.87;1.30;;;;;;;;;;4975552;28;20205;-54
2022/06/16 08:00:23;;;;;;;1.47;1.00;;;;;;;;;;4975426;28;20203;-52
2022/06/16 08:02:49;;;;;;;2.37;1.40;;;;;;;;;;4975432;28;20203;-54
2022/06/16 08:05:16;;;;;;;1.57;1.10;;;;;;;;;;4975036;28;20266;-52
2022/06/16 08:07:43;;;;;;;2.60;1.30;;;;;;;;;;4973410;28;20227;-52
2022/06/16 08:10:11;;;;;;;2.23;1.30;;;;;;;;;;4974918;28;20202;-53
2022/06/16 08:12:37;;;;;;;2.10;1.20;;;;;;;;;;4974659;28;20209;-53
2022/06/16 08:15:03;;;;;;;2.27;1.30;;;;;;;;;;4975150;28;20199;-58
2022/06/16 08:17:31;;;;;;;3.10;1.50;;;;;;;;;;4974170;28;20528;-57
2022/06/16 08:19:58;;;;;;;3.73;1.40;;;;;;;;;;4974459;28;20274;-57
2022/06/16 08:22:24;;;;;;;5.80;1.27;;;;;;;;;;4974712;28;20253;-58
2022/06/16 08:24:50;;;;;;;3.43;1.70;;;;;;;;;;4975007;28;20682;-55
2022/06/16 08:27:17;;;;;;;3.20;1.60;;;;;;;;;;4975121;28;20264;-54
2022/06/16 08:29:43;;;;;;;1.50;1.20;;;;;;;;;;4975005;28;20242;-54
2022/06/16 08:32:10;;;;;;;2.93;1.40;;;;;;;;;;4974642;28;20258;-55
2022/06/16 08:34:38;;;;;;;2.43;1.10;;;;;;;;;;4974930;28;20199;-55
2022/06/16 08:37:04;;;;;;;3.87;1.33;;;;;;;;;;4974804;28;20202;-54
2022/06/16 08:39:30;;;;;;;2.73;1.50;;;;;;;;;;4974680;28;20207;-57
2022/06/16 08:41:59;;;;;;;3.83;1.30;;;;;;;;;;4974987;28;20187;-54
2022/06/16 08:44:27;;;;;;;2.97;1.40;;;;;;;;;;4974977;28;20203;-54
2022/06/16 08:47:01;;;;;;;3.50;1.23;;;;;;;;;;4974488;28;20647;-54
2022/06/16 08:49:30;;;;;;;2.67;1.30;;;;;;;;;;4974097;28;20193;-54
2022/06/16 08:52:07;;;;;;;1.27;1.07;;;;;;;;;;4973996;28;20207;-54
2022/06/16 08:54:40;;;;;;;2.03;1.30;;;;;;;;;;4973869;28;20708;-54
2022/06/16 08:57:10;;;;;;;2.47;1.30;;;;;;;;;;4974341;28;20717;-54
2022/06/16 08:59:41;;;;;;;4.67;1.33;;;;;;;;;;4973863;28;20201;-54
2022/06/16 09:02:08;;;;;;;2.10;1.17;;;;;;;;;;4973790;28;20662;-54
2022/06/16 09:04:38;;;;;;;1.80;1.10;;;;;;;;;;4973986;28;20207;-55
2022/06/16 09:07:11;;;;;;;2.53;1.47;;;;;;;;;;4973580;28;20290;-55
2022/06/16 09:12:37;;;;;;;3.17;1.40;;;;;;;;;;4973864;28;20244;-55
2022/06/16 09:15:11;;;;;;;2.40;1.20;;;;;;;;;;4973881;28;20204;-55
2022/06/16 09:17:42;;;;;;;3.33;1.43;;;;;;;;;;4973541;28;20202;-55
2022/06/16 09:20:12;;;;;;;3.13;1.33;;;;;;;;;;4974293;28;20274;-55
2022/06/16 09:22:53;;;;;;;1.37;1.27;;;;;;;;;;4973825;28;20225;-55
2022/06/16 09:25:31;;;;;;;1.80;1.13;;;;;;;;;;4973952;28;20206;-55
2022/06/16 09:27:59;;;;;;;3.40;1.20;;;;;;;;;;4973689;28;20590;-54
2022/06/16 09:30:28;;;;;;;1.63;0.83;;;;;;;;;;4973603;28;20724;-55
2022/06/16 09:32:56;;;;;;;2.77;1.10;;;;;;;;;;4973511;28;20195;-54
2022/06/16 09:35:26;;;;;;;2.40;1.20;;;;;;;;;;4973968;28;20274;-55
2022/06/16 09:37:58;;;;;;;3.30;1.10;;;;;;;;;;4973475;28;20191;-54
2022/06/16 09:40:26;;;;;;;1.20;1.10;;;;;;;;;;4973719;28;20203;-54
2022/06/16 09:42:55;;;;;;;3.20;0.93;;;;;;;;;;4973754;28;20207;-54
2022/06/16 09:45:25;;;;;;;1.27;1.00;;;;;;;;;;4973408;28;20203;-55
2022/06/16 09:47:54;;;;;;;3.13;1.20;;;;;;;;;;4973248;28;20463;-54
2022/06/16 09:50:36;;;;;;;2.17;1.07;;;;;;;;;;4973803;28;20199;-55
2022/06/16 09:53:05;;;;;;;2.33;1.03;;;;;;;;;;4973252;28;20207;-55
2022/06/16 09:55:34;;;;;;;2.07;0.87;;;;;;;;;;4973366;28;20256;-54
2022/06/16 09:58:02;;;;;;;2.47;0.90;;;;;;;;;;4973124;28;20196;-54
2022/06/16 10:00:34;;;;;;;2.47;1.00;;;;;;;;;;4973244;28;20223;-55
2022/06/16 10:03:03;;;;;;;4.17;1.00;;;;;;;;;;4972828;28;20716;-55
2022/06/16 10:05:34;;;;;;;2.33;1.13;;;;;;;;;;4971429;28;20206;-55
2022/06/16 10:08:02;;;;;;;1.53;1.00;;;;;;;;;;4972622;28;20239;-55
2022/06/16 10:10:34;;;;;;;2.83;1.17;;;;;;;;;;4972503;28;20622;-55
2022/06/16 10:13:04;;;;;;;2.80;1.30;;;;;;;;;;4972407;28;20233;-55
2022/06/16 10:15:32;;;;;;;2.03;0.90;;;;;;;;;;4973088;28;20200;-54
2022/06/16 10:17:58;;;;;;;1.00;0.80;;;;;;;;;;4972234;28;20205;-55
2022/06/16 10:20:25;;;;;;;0.97;0.70;;;;;;;;;;4972308;28;20206;-55
2022/06/16 10:22:54;;;;;;;2.17;1.10;;;;;;;;;;4972315;28;20205;-55
2022/06/16 10:25:23;;;;;;;1.97;0.93;;;;;;;;;;4972323;28;20196;-55
2022/06/16 10:27:51;;;;;;;0.73;0.73;;;;;;;;;;4970684;28;20700;-55
2022/06/16 10:30:19;;;;;;;2.73;1.00;;;;;;;;;;4972024;28;20300;-54
2022/06/16 10:32:47;;;;;;;3.30;1.17;;;;;;;;;;4972884;28;20204;-54
2022/06/16 10:35:16;;;;;;;1.60;0.83;;;;;;;;;;4972209;28;20210;-54
2022/06/16 10:37:42;;;;;;;1.60;0.93;;;;;;;;;;4972487;28;20281;-54
2022/06/16 10:40:10;;;;;;;1.63;0.90;;;;;;;;;;4972472;28;20206;-54
2022/06/16 10:42:40;;;;;;;2.60;1.00;;;;;;;;;;4972664;28;20202;-54
2022/06/16 10:45:09;;;;;;;2.40;1.00;;;;;;;;;;4972424;28;20226;-54
2022/06/16 10:47:39;;;;;;;1.20;0.90;;;;;;;;;;4972304;28;20239;-54
2022/06/16 10:50:07;;;;;;;2.77;1.00;;;;;;;;;;4972292;28;20221;-54
2022/06/16 10:52:35;;;;;;;3.70;1.30;;;;;;;;;;4972689;28;20260;-54
2022/06/16 10:55:05;;;;;;;1.53;0.77;;;;;;;;;;4972513;28;20242;-54
2022/06/16 10:57:33;;;;;;;2.63;0.90;;;;;;;;;;4972773;28;20226;-54
2022/06/16 11:00:07;;;;;;;1.33;0.90;;;;;;;;;;4972534;28;20243;-54
2022/06/16 11:02:35;;;;;;;3.23;0.93;;;;;;;;;;4972581;28;20205;-55
2022/06/16 11:05:03;;;;;;;1.17;0.90;;;;;;;;;;4972313;28;20214;-54
2022/06/16 11:07:34;;;;;;;1.00;0.60;;;;;;;;;;4972249;28;20230;-54
2022/06/16 11:10:01;;;;;;;2.70;0.90;;;;;;;;;;4972180;28;20217;-54
2022/06/16 11:12:27;;;;;;;2.73;0.80;;;;;;;;;;4972283;28;20227;-54
2022/06/16 11:14:54;;;;;;;4.57;0.80;;;;;;;;;;4972334;28;20667;-54
2022/06/16 11:17:22;;;;;;;5.07;0.87;;;;;;;;;;4972819;28;20315;-54
2022/06/16 11:19:51;;;;;;;2.23;0.90;;;;;;;;;;4972574;28;20221;-55
2022/06/16 11:22:25;;;;;;;1.90;1.10;;;;;;;;;;4972170;28;20609;-54
2022/06/16 11:24:55;;;;;;;1.13;0.70;;;;;;;;;;4972302;28;20242;-54
2022/06/16 11:27:21;;;;;;;1.40;1.00;;;;;;;;;;4971667;28;20238;-54
2022/06/16 11:29:48;;;;;;;1.23;0.80;;;;;;;;;;4971969;28;20731;-54
2022/06/16 11:32:17;;;;;;;2.30;1.00;;;;;;;;;;4971705;28;20567;-54
2022/06/16 11:34:44;;;;;;;1.63;1.17;;;;;;;;;;4965550;28;20221;-55
2022/06/16 11:37:19;;;;;;;1.63;0.90;;;;;;;;;;4952759;29;20570;-54
2022/06/16 11:39:50;;;;;;;1.70;1.10;;;;;;;;;;4952757;29;20253;-55
2022/06/16 11:42:21;;;;;;;0.93;0.77;;;;;;;;;;4954815;28;20219;-55
2022/06/16 11:44:51;;;;;;;3.30;1.10;;;;;;;;;;4956401;29;20225;-55
2022/06/16 11:47:26;;;;;;;1.77;0.90;;;;;;;;;;4956179;29;20244;-55
2022/06/16 11:49:55;;;;;;;1.33;1.00;;;;;;;;;;4956305;29;20199;-55
2022/06/16 11:52:26;;;;;;;1.97;1.20;;;;;;;;;;4956076;29;20214;-55
2022/06/16 11:54:59;;;;;;;6.00;1.10;;;;;;;;;;4963223;28;20234;-55
2022/06/16 11:57:30;;;;;;;1.33;1.00;;;;;;;;;;4964595;28;20769;-55
2022/06/16 12:00:03;;;;;;;1.50;0.90;;;;;;;;;;4964050;28;20570;-55
2022/06/16 12:02:39;;;;;;;2.27;1.30;;;;;;;;;;4968292;28;20203;-56
2022/06/16 12:05:09;;;;;;;3.03;1.20;;;;;;;;;;4974803;28;20654;-55
2022/06/16 12:07:52;;;;;;;2.27;0.97;;;;;;;;;;4975196;28;20248;-56
2022/06/16 12:10:22;;;;;;;2.60;1.00;;;;;;;;;;4975406;28;20199;-55
2022/06/16 12:12:52;;;;;;;1.93;1.00;;;;;;;;;;4974953;28;20205;-55
2022/06/16 12:15:28;;;;;;;1.57;1.17;;;;;;;;;;4975489;28;20200;-55
2022/06/16 12:17:58;;;;;;;2.90;1.10;;;;;;;;;;4975187;28;20203;-55
2022/06/16 12:20:27;;;;;;;2.37;1.17;;;;;;;;;;4974958;28;20703;-55
2022/06/16 12:22:59;;;;;;;2.63;1.20;;;;;;;;;;4973082;28;20357;-55
2022/06/16 12:25:29;;;;;;;2.73;1.50;;;;;;;;;;4974804;28;20228;-56
2022/06/16 12:27:58;;;;;;;2.63;1.60;;;;;;;;;;4974446;28;20343;-56
2022/06/16 12:30:28;;;;;;;2.47;1.20;;;;;;;;;;4974801;28;20240;-56
2022/06/16 12:32:57;;;;;;;2.73;1.20;;;;;;;;;;4974631;28;20204;-55
2022/06/16 12:35:26;;;;;;;5.30;1.53;;;;;;;;;;4974644;28;20376;-55
2022/06/16 12:37:53;;;;;;;2.37;1.23;;;;;;;;;;4974598;28;20199;-55
2022/06/16 12:40:22;;;;;;;4.10;1.30;;;;;;;;;;4974636;28;20206;-55
2022/06/16 12:42:51;;;;;;;4.97;1.47;;;;;;;;;;4974813;28;20209;-55
2022/06/16 12:45:18;;;;;;;5.20;1.50;;;;;;;;;;4974347;28;20607;-55
2022/06/16 12:47:47;;;;;;;2.10;1.30;;;;;;;;;;4974300;28;20336;-55
2022/06/16 12:50:17;;;;;;;2.17;1.27;;;;;;;;;;4974377;28;20283;-55
2022/06/16 12:52:45;;;;;;;2.00;1.17;;;;;;;;;;4974190;28;20201;-55
2022/06/16 12:55:15;;;;;;;2.30;1.20;;;;;;;;;;4974656;28;20204;-54
2022/06/16 12:57:44;;;;;;;4.13;1.30;;;;;;;;;;4974197;28;20212;-55
2022/06/16 13:00:12;;;;;;;2.43;1.50;;;;;;;;;;4974218;28;20241;-55
2022/06/16 13:02:41;;;;;;;4.80;1.40;;;;;;;;;;4974283;28;20202;-55
2022/06/16 13:05:10;;;;;;;3.13;1.10;;;;;;;;;;4972118;28;20198;-55
2022/06/16 13:07:38;;;;;;;1.53;1.40;;;;;;;;;;4973766;28;20233;-56
2022/06/16 13:10:05;;;;;;;2.53;1.47;;;;;;;;;;4974036;28;20233;-55
2022/06/16 13:12:32;;;;;;;3.47;1.50;;;;;;;;;;4974574;28;20198;-56
2022/06/16 13:15:01;;;;;;;1.93;1.20;;;;;;;;;;4974179;28;20206;-55
2022/06/16 13:17:29;;;;;;;4.80;1.37;;;;;;;;;;4970303;28;20217;-55
2022/06/16 13:19:57;;;;;;;3.83;1.30;;;;;;;;;;4954072;28;20273;-54
2022/06/16 13:22:25;;;;;;;3.40;1.10;;;;;;;;;;4954339;29;20294;-55
2022/06/16 13:24:53;;;;;;;4.57;1.20;;;;;;;;;;4954515;29;20289;-55
2022/06/16 13:27:23;;;;;;;2.03;1.30;;;;;;;;;;4954118;29;20242;-55
2022/06/16 13:29:58;;;;;;;3.17;1.33;;;;;;;;;;4954362;29;20244;-55
2022/06/16 13:32:37;;;;;;;2.90;1.43;;;;;;;;;;4954601;29;20213;-55
2022/06/16 13:35:26;;;;;;;3.03;1.40;;;;;;;;;;4954028;29;20210;-55
2022/06/16 13:38:16;;;;;;;2.57;1.23;;;;;;;;;;4954167;29;20195;-54
2022/06/16 13:40:43;;;;;;;2.40;1.17;;;;;;;;;;4954033;29;20254;-55
2022/06/16 13:43:11;;;;;;;2.67;1.30;;;;;;;;;;4954114;29;20202;-54
2022/06/16 13:45:54;;;;;;;2.37;1.50;;;;;;;;;;4954169;29;20221;-54
2022/06/16 13:48:32;;;;;;;3.43;1.40;;;;;;;;;;4954298;29;20237;-54
2022/06/16 13:50:59;;;;;;;4.13;1.57;;;;;;;;;;4953969;29;20207;-54
2022/06/16 13:53:26;;;;;;;2.07;1.30;;;;;;;;;;4954203;29;20201;-54
2022/06/16 13:55:57;;;;;;;4.10;1.40;;;;;;;;;;4954002;29;20687;-54
2022/06/16 13:58:24;;;;;;;4.60;1.50;;;;;;;;;;4953803;29;20212;-56
2022/06/16 14:01:09;;;;;;;3.70;1.30;;;;;;;;;;4953341;29;20197;-55
2022/06/16 14:03:46;;;;;;;2.17;1.40;;;;;;;;;;4953531;28;20202;-54
2022/06/16 14:06:13;;;;;;;5.43;1.90;;;;;;;;;;4953507;29;20206;-55
2022/06/16 14:08:50;;;;;;;4.23;1.50;;;;;;;;;;4953874;29;20252;-53
2022/06/16 14:11:18;;;;;;;2.67;1.50;;;;;;;;;;4953799;29;20199;-54
2022/06/16 14:13:45;;;;;;;3.53;1.60;;;;;;;;;;4953618;29;20305;-54
2022/06/16 14:16:19;;;;;;;3.87;1.67;;;;;;;;;;4953533;29;20206;-54
2022/06/16 14:18:54;;;;;;;4.67;1.83;;;;;;;;;;4953444;29;20214;-54
2022/06/16 14:21:23;;;;;;;2.83;1.50;;;;;;;;;;4953455;29;20750;-55
2022/06/16 14:23:55;;;;;;;2.93;1.57;;;;;;;;;;4953520;29;20240;-55
2022/06/16 14:26:24;;;;;;;6.90;1.93;;;;;;;;;;4963054;28;20655;-55
2022/06/16 14:28:51;;;;;;;3.13;1.60;;;;;;;;;;4972680;28;20205;-55
2022/06/16 14:31:28;;;;;;;2.87;1.60;;;;;;;;;;4972937;28;20220;-55
2022/06/16 14:33:57;;;;;;;4.03;1.50;;;;;;;;;;4969555;28;20203;-54
2022/06/16 14:36:25;;;;;;;8.47;1.90;;;;;;;;;;4971591;28;20209;-54
2022/06/16 14:38:54;;;;;;;4.00;1.40;;;;;;;;;;4972305;28;20409;-54
2022/06/16 14:41:24;;;;;;;3.20;1.70;;;;;;;;;;4972165;28;20694;-54
2022/06/16 14:43:53;;;;;;;2.70;1.50;;;;;;;;;;4972415;28;20285;-54
2022/06/16 14:46:23;;;;;;;3.00;1.70;;;;;;;;;;4972135;28;20204;-55
2022/06/16 14:48:50;;;;;;;2.27;1.60;;;;;;;;;;4972188;28;20266;-55
2022/06/16 14:51:21;;;;;;;4.03;2.00;;;;;;;;;;4972334;28;20215;-55
2022/06/16 14:53:51;;;;;;;2.63;1.50;;;;;;;;;;4972209;28;20604;-55
2022/06/16 14:56:19;;;;;;;4.53;1.80;;;;;;;;;;4972090;28;20206;-53
2022/06/16 14:58:48;;;;;;;5.23;1.83;;;;;;;;;;4972294;28;20203;-54
2022/06/16 15:01:15;;;;;;;3.33;1.80;;;;;;;;;;4971977;28;20211;-54
2022/06/16 15:03:42;;;;;;;3.47;1.60;;;;;;;;;;4972060;28;20199;-54
2022/06/16 15:06:09;;;;;;;2.77;1.60;;;;;;;;;;4972041;28;20295;-54
2022/06/16 15:08:38;;;;;;;2.40;1.60;;;;;;;;;;4971804;28;20210;-54